Terminal Aerodrome Forecast
Issued by NWS Paducah, KY

Home | Current Version | Previous Version | Text Only | Print | Product List | Glossary On
Versions: 1 2 3 4 5 6 7 8 9 10 11 12 13 14 15 16 17 18 19 20 21 22 23 24 25
000
FTUS43 KPAH 251605 AAB
TAFPAH
TAF AMD
KPAH 251605Z 2516/2612 13006KT P6SM BKN040
     FM251700 19006KT P6SM SCT040 BKN150
      TEMPO 2518/2521 4SM SHRA BKN040
     FM260000 18006KT P6SM FEW050 SCT250=

USA.gov is the U.S. government's official web portal to all federal, state and local government web resources and services.